sensor_id;sensor_type;location;lat;lon;timestamp;pressure;altitude;pressure_sealevel;temperature;humidity
50356;BME280;36264;51.296;-0.602;2023-07-13T00:02:08;101269.59;;;16.67;83.37
50356;BME280;36264;51.296;-0.602;2023-07-13T00:04:34;101274.28;;;16.61;84.40
50356;BME280;36264;51.296;-0.602;2023-07-13T00:06:59;101276.25;;;16.56;84.34
50356;BME280;36264;51.296;-0.602;2023-07-13T00:09:25;101273.94;;;16.50;86.51
50356;BME280;36264;51.296;-0.602;2023-07-13T00:11:56;101271.66;;;16.61;85.43
50356;BME280;36264;51.296;-0.602;2023-07-13T00:14:24;101273.09;;;16.49;84.70
50356;BME280;36264;51.296;-0.602;2023-07-13T00:16:49;101269.22;;;16.39;84.26
50356;BME280;36264;51.296;-0.602;2023-07-13T00:19:15;101265.78;;;16.37;84.55
50356;BME280;36264;51.296;-0.602;2023-07-13T00:21:41;101273.59;;;16.38;84.41
50356;BME280;36264;51.296;-0.602;2023-07-13T00:24:08;101279.00;;;16.35;84.99
50356;BME280;36264;51.296;-0.602;2023-07-13T00:26:38;101276.00;;;16.24;85.41
50356;BME280;36264;51.296;-0.602;2023-07-13T00:29:03;101270.91;;;16.21;84.62
50356;BME280;36264;51.296;-0.602;2023-07-13T00:31:30;101275.44;;;16.17;85.10
50356;BME280;36264;51.296;-0.602;2023-07-13T00:33:55;101274.03;;;16.10;85.13
50356;BME280;36264;51.296;-0.602;2023-07-13T00:36:21;101270.63;;;16.08;87.93
50356;BME280;36264;51.296;-0.602;2023-07-13T00:38:47;101274.09;;;16.08;86.14
50356;BME280;36264;51.296;-0.602;2023-07-13T00:41:12;101272.59;;;16.03;85.58
50356;BME280;36264;51.296;-0.602;2023-07-13T00:43:38;101267.63;;;15.97;85.37
50356;BME280;36264;51.296;-0.602;2023-07-13T00:48:38;101264.94;;;15.98;87.50
50356;BME280;36264;51.296;-0.602;2023-07-13T00:51:04;101262.66;;;15.90;88.67
50356;BME280;36264;51.296;-0.602;2023-07-13T00:53:31;101267.63;;;15.97;88.69
50356;BME280;36264;51.296;-0.602;2023-07-13T00:55:57;101263.25;;;15.78;90.16
50356;BME280;36264;51.296;-0.602;2023-07-13T00:58:25;101263.63;;;15.89;88.42
50356;BME280;36264;51.296;-0.602;2023-07-13T01:00:51;101269.41;;;15.77;88.41
50356;BME280;36264;51.296;-0.602;2023-07-13T01:03:18;101266.50;;;15.83;87.24
50356;BME280;36264;51.296;-0.602;2023-07-13T01:05:43;101271.28;;;15.73;87.11
50356;BME280;36264;51.296;-0.602;2023-07-13T01:08:12;101267.91;;;15.70;87.67
50356;BME280;36264;51.296;-0.602;2023-07-13T01:10:37;101267.06;;;15.69;89.46
50356;BME280;36264;51.296;-0.602;2023-07-13T01:13:10;101277.88;;;15.82;88.55
50356;BME280;36264;51.296;-0.602;2023-07-13T01:15:44;101270.88;;;15.83;88.35
50356;BME280;36264;51.296;-0.602;2023-07-13T01:18:13;101272.88;;;15.76;88.00
50356;BME280;36264;51.296;-0.602;2023-07-13T01:20:40;101271.53;;;15.67;89.04
50356;BME280;36264;51.296;-0.602;2023-07-13T01:23:07;101265.38;;;15.68;87.77
50356;BME280;36264;51.296;-0.602;2023-07-13T01:25:35;101271.53;;;15.67;89.17
50356;BME280;36264;51.296;-0.602;2023-07-13T01:28:01;101279.59;;;15.63;89.31
50356;BME280;36264;51.296;-0.602;2023-07-13T01:30:27;101279.88;;;15.56;89.30
50356;BME280;36264;51.296;-0.602;2023-07-13T01:32:53;101280.84;;;15.54;88.19
50356;BME280;36264;51.296;-0.602;2023-07-13T01:35:18;101276.66;;;15.50;88.83
50356;BME280;36264;51.296;-0.602;2023-07-13T01:37:43;101274.81;;;15.52;89.69
50356;BME280;36264;51.296;-0.602;2023-07-13T01:40:10;101272.06;;;15.55;88.86
50356;BME280;36264;51.296;-0.602;2023-07-13T01:42:36;101272.91;;;15.55;88.74
50356;BME280;36264;51.296;-0.602;2023-07-13T01:45:02;101275.00;;;15.47;88.23
50356;BME280;36264;51.296;-0.602;2023-07-13T01:47:28;101270.09;;;15.39;89.47
50356;BME280;36264;51.296;-0.602;2023-07-13T01:49:55;101270.75;;;15.45;89.65
50356;BME280;36264;51.296;-0.602;2023-07-13T01:52:21;101262.97;;;15.43;90.34
50356;BME280;36264;51.296;-0.602;2023-07-13T01:54:46;101268.81;;;15.50;93.40
50356;BME280;36264;51.296;-0.602;2023-07-13T01:57:11;101265.25;;;15.51;93.94
50356;BME280;36264;51.296;-0.602;2023-07-13T01:59:37;101257.19;;;15.55;92.29
50356;BME280;36264;51.296;-0.602;2023-07-13T02:02:02;101258.84;;;15.58;91.12
50356;BME280;36264;51.296;-0.602;2023-07-13T02:04:28;101265.88;;;15.57;91.31
50356;BME280;36264;51.296;-0.602;2023-07-13T02:06:53;101269.38;;;15.56;93.86
50356;BME280;36264;51.296;-0.602;2023-07-13T02:09:20;101265.06;;;15.55;91.58
50356;BME280;36264;51.296;-0.602;2023-07-13T02:11:46;101259.94;;;15.52;92.88
50356;BME280;36264;51.296;-0.602;2023-07-13T02:14:11;101261.03;;;15.48;91.61
50356;BME280;36264;51.296;-0.602;2023-07-13T02:16:36;101250.69;;;15.45;91.13
50356;BME280;36264;51.296;-0.602;2023-07-13T02:19:02;101256.94;;;15.41;90.66
50356;BME280;36264;51.296;-0.602;2023-07-13T02:21:27;101256.19;;;15.39;90.95
50356;BME280;36264;51.296;-0.602;2023-07-13T02:23:52;101250.22;;;15.35;90.79
50356;BME280;36264;51.296;-0.602;2023-07-13T02:26:18;101255.47;;;15.35;91.19
50356;BME280;36264;51.296;-0.602;2023-07-13T02:28:44;101252.97;;;15.32;91.14
50356;BME280;36264;51.296;-0.602;2023-07-13T02:31:12;101259.69;;;15.38;90.22
50356;BME280;36264;51.296;-0.602;2023-07-13T02:33:38;101256.75;;;15.25;90.51
50356;BME280;36264;51.296;-0.602;2023-07-13T02:36:04;101261.16;;;15.25;91.24
50356;BME280;36264;51.296;-0.602;2023-07-13T02:38:31;101257.75;;;15.23;90.50
50356;BME280;36264;51.296;-0.602;2023-07-13T02:40:59;101261.34;;;15.20;90.88
50356;BME280;36264;51.296;-0.602;2023-07-13T02:43:24;101264.88;;;15.19;90.30
50356;BME280;36264;51.296;-0.602;2023-07-13T02:45:49;101261.47;;;15.17;91.51
50356;BME280;36264;51.296;-0.602;2023-07-13T02:48:15;101259.00;;;15.14;91.07
50356;BME280;36264;51.296;-0.602;2023-07-13T02:50:40;101270.34;;;15.13;90.74
50356;BME280;36264;51.296;-0.602;2023-07-13T02:53:06;101263.44;;;15.12;91.01
50356;BME280;36264;51.296;-0.602;2023-07-13T02:55:31;101261.72;;;15.11;92.33
50356;BME280;36264;51.296;-0.602;2023-07-13T02:57:56;101259.25;;;15.08;91.52
50356;BME280;36264;51.296;-0.602;2023-07-13T03:00:22;101263.63;;;15.07;92.26
50356;BME280;36264;51.296;-0.602;2023-07-13T03:02:48;101270.88;;;15.00;92.71
50356;BME280;36264;51.296;-0.602;2023-07-13T03:05:13;101271.00;;;14.97;92.21
50356;BME280;36264;51.296;-0.602;2023-07-13T03:07:40;101272.81;;;14.95;91.51
50356;BME280;36264;51.296;-0.602;2023-07-13T03:10:05;101275.50;;;14.94;91.83
50356;BME280;36264;51.296;-0.602;2023-07-13T03:12:32;101274.00;;;14.88;91.63
50356;BME280;36264;51.296;-0.602;2023-07-13T03:14:57;101279.16;;;14.90;91.54
50356;BME280;36264;51.296;-0.602;2023-07-13T03:17:23;101270.66;;;14.84;91.18
50356;BME280;36264;51.296;-0.602;2023-07-13T03:19:48;101260.75;;;14.71;91.24
50356;BME280;36264;51.296;-0.602;2023-07-13T03:22:17;101280.31;;;14.82;91.82
50356;BME280;36264;51.296;-0.602;2023-07-13T03:24:42;101279.78;;;14.74;92.63
50356;BME280;36264;51.296;-0.602;2023-07-13T03:27:08;101279.06;;;14.71;92.26
50356;BME280;36264;51.296;-0.602;2023-07-13T03:29:33;101289.56;;;14.69;91.92
50356;BME280;36264;51.296;-0.602;2023-07-13T03:31:58;101286.09;;;14.68;92.10
50356;BME280;36264;51.296;-0.602;2023-07-13T03:34:24;101278.31;;;14.67;93.79
50356;BME280;36264;51.296;-0.602;2023-07-13T03:36:50;101278.50;;;14.62;94.93
50356;BME280;36264;51.296;-0.602;2023-07-13T03:39:15;101286.16;;;14.67;94.94
50356;BME280;36264;51.296;-0.602;2023-07-13T03:41:41;101282.81;;;14.63;93.44
50356;BME280;36264;51.296;-0.602;2023-07-13T03:44:06;101281.13;;;14.62;95.39
50356;BME280;36264;51.296;-0.602;2023-07-13T03:46:32;101279.19;;;14.67;94.79
50356;BME280;36264;51.296;-0.602;2023-07-13T03:48:58;101273.34;;;14.61;93.87
50356;BME280;36264;51.296;-0.602;2023-07-13T03:51:24;101282.13;;;14.58;93.47
50356;BME280;36264;51.296;-0.602;2023-07-13T03:53:49;101288.38;;;14.54;93.12
50356;BME280;36264;51.296;-0.602;2023-07-13T03:56:16;101287.25;;;14.61;92.81
50356;BME280;36264;51.296;-0.602;2023-07-13T03:58:44;101296.03;;;14.59;92.82
50356;BME280;36264;51.296;-0.602;2023-07-13T04:01:11;101292.81;;;14.52;93.28
50356;BME280;36264;51.296;-0.602;2023-07-13T04:03:37;101293.16;;;14.43;94.94
50356;BME280;36264;51.296;-0.602;2023-07-13T04:06:05;101296.22;;;14.54;94.49
50356;BME280;36264;51.296;-0.602;2023-07-13T04:08:33;101292.03;;;14.50;93.63
50356;BME280;36264;51.296;-0.602;2023-07-13T04:10:59;101294.94;;;14.42;93.45
50356;BME280;36264;51.296;-0.602;2023-07-13T04:13:25;101294.75;;;14.47;92.82
50356;BME280;36264;51.296;-0.602;2023-07-13T04:15:52;101292.97;;;14.47;92.69
50356;BME280;36264;51.296;-0.602;2023-07-13T04:18:18;101300.22;;;14.41;93.46
50356;BME280;36264;51.296;-0.602;2023-07-13T04:20:45;101305.38;;;14.42;93.57
50356;BME280;36264;51.296;-0.602;2023-07-13T04:23:10;101304.44;;;14.45;94.37
50356;BME280;36264;51.296;-0.602;2023-07-13T04:25:36;101314.69;;;14.49;94.91
50356;BME280;36264;51.296;-0.602;2023-07-13T04:28:03;101311.63;;;14.62;95.51
50356;BME280;36264;51.296;-0.602;2023-07-13T04:30:29;101303.44;;;14.47;94.40
50356;BME280;36264;51.296;-0.602;2023-07-13T04:32:54;101307.72;;;14.50;93.59
50356;BME280;36264;51.296;-0.602;2023-07-13T04:35:22;101304.59;;;14.64;94.16
50356;BME280;36264;51.296;-0.602;2023-07-13T04:37:49;101310.16;;;14.55;96.75
50356;BME280;36264;51.296;-0.602;2023-07-13T04:40:16;101311.94;;;14.53;94.88
50356;BME280;36264;51.296;-0.602;2023-07-13T04:42:42;101306.94;;;14.48;95.46
50356;BME280;36264;51.296;-0.602;2023-07-13T04:45:08;101311.16;;;14.50;95.12
50356;BME280;36264;51.296;-0.602;2023-07-13T04:47:33;101312.22;;;14.46;94.93
50356;BME280;36264;51.296;-0.602;2023-07-13T04:49:59;101310.50;;;14.45;95.36
50356;BME280;36264;51.296;-0.602;2023-07-13T04:52:24;101320.78;;;14.50;94.92
50356;BME280;36264;51.296;-0.602;2023-07-13T04:54:50;101314.75;;;14.48;95.13
50356;BME280;36264;51.296;-0.602;2023-07-13T04:57:15;101316.16;;;14.57;94.82
50356;BME280;36264;51.296;-0.602;2023-07-13T04:59:41;101309.28;;;14.54;94.43
50356;BME280;36264;51.296;-0.602;2023-07-13T05:02:06;101316.22;;;14.55;95.76
50356;BME280;36264;51.296;-0.602;2023-07-13T05:04:32;101325.66;;;14.59;95.45
50356;BME280;36264;51.296;-0.602;2023-07-13T05:06:58;101305.69;;;14.57;95.18
50356;BME280;36264;51.296;-0.602;2023-07-13T05:09:24;101324.63;;;14.63;95.39
50356;BME280;36264;51.296;-0.602;2023-07-13T05:11:49;101320.94;;;14.69;95.82
50356;BME280;36264;51.296;-0.602;2023-07-13T05:14:15;101320.78;;;14.74;95.43
50356;BME280;36264;51.296;-0.602;2023-07-13T05:16:41;101319.84;;;14.75;97.25
50356;BME280;36264;51.296;-0.602;2023-07-13T05:19:07;101321.91;;;14.89;95.57
50356;BME280;36264;51.296;-0.602;2023-07-13T05:21:33;101326.53;;;14.82;97.47
50356;BME280;36264;51.296;-0.602;2023-07-13T05:23:58;101322.75;;;14.89;96.63
50356;BME280;36264;51.296;-0.602;2023-07-13T05:26:23;101329.47;;;14.96;95.81
50356;BME280;36264;51.296;-0.602;2023-07-13T05:28:49;101331.84;;;15.02;97.01
50356;BME280;36264;51.296;-0.602;2023-07-13T05:31:14;101328.97;;;15.09;97.00
50356;BME280;36264;51.296;-0.602;2023-07-13T05:33:40;101328.47;;;15.21;98.85
50356;BME280;36264;51.296;-0.602;2023-07-13T05:36:05;101328.94;;;15.31;99.01
50356;BME280;36264;51.296;-0.602;2023-07-13T05:38:32;101328.63;;;15.38;99.68
50356;BME280;36264;51.296;-0.602;2023-07-13T05:40:58;101329.88;;;15.50;99.54
50356;BME280;36264;51.296;-0.602;2023-07-13T05:43:23;101338.56;;;15.71;98.66
50356;BME280;36264;51.296;-0.602;2023-07-13T05:45:52;101332.16;;;15.99;99.49
50356;BME280;36264;51.296;-0.602;2023-07-13T05:48:17;101350.31;;;16.04;100.00
50356;BME280;36264;51.296;-0.602;2023-07-13T05:50:43;101352.22;;;16.19;100.00
50356;BME280;36264;51.296;-0.602;2023-07-13T05:53:08;101354.28;;;16.32;100.00
50356;BME280;36264;51.296;-0.602;2023-07-13T05:55:33;101349.31;;;16.44;100.00
50356;BME280;36264;51.296;-0.602;2023-07-13T05:58:00;101357.19;;;16.63;100.00
50356;BME280;36264;51.296;-0.602;2023-07-13T06:00:26;101358.84;;;16.66;100.00
50356;BME280;36264;51.296;-0.602;2023-07-13T06:02:52;101360.88;;;16.78;100.00
50356;BME280;36264;51.296;-0.602;2023-07-13T06:05:17;101366.56;;;16.88;100.00
50356;BME280;36264;51.296;-0.602;2023-07-13T06:07:42;101366.97;;;16.98;100.00
50356;BME280;36264;51.296;-0.602;2023-07-13T06:10:08;101358.53;;;17.10;100.00
50356;BME280;36264;51.296;-0.602;2023-07-13T06:12:34;101369.50;;;17.18;100.00
50356;BME280;36264;51.296;-0.602;2023-07-13T06:14:59;101373.69;;;17.23;100.00
50356;BME280;36264;51.296;-0.602;2023-07-13T06:17:24;101380.53;;;17.25;100.00
50356;BME280;36264;51.296;-0.602;2023-07-13T06:19:50;101383.78;;;17.30;100.00
50356;BME280;36264;51.296;-0.602;2023-07-13T06:22:15;101388.88;;;17.33;100.00
50356;BME280;36264;51.296;-0.602;2023-07-13T06:24:41;101389.13;;;17.29;100.00
50356;BME280;36264;51.296;-0.602;2023-07-13T06:27:06;101391.28;;;17.38;100.00
50356;BME280;36264;51.296;-0.602;2023-07-13T06:29:31;101387.97;;;17.52;100.00
50356;BME280;36264;51.296;-0.602;2023-07-13T06:31:57;101384.44;;;17.70;100.00
50356;BME280;36264;51.296;-0.602;2023-07-13T06:34:22;101390.06;;;17.80;100.00
50356;BME280;36264;51.296;-0.602;2023-07-13T06:36:48;101387.91;;;17.71;100.00
50356;BME280;36264;51.296;-0.602;2023-07-13T06:39:14;101393.44;;;17.82;100.00
50356;BME280;36264;51.296;-0.602;2023-07-13T06:41:39;101393.94;;;17.90;100.00
50356;BME280;36264;51.296;-0.602;2023-07-13T06:44:05;101397.81;;;18.01;100.00
50356;BME280;36264;51.296;-0.602;2023-07-13T06:46:31;101401.09;;;18.04;100.00
50356;BME280;36264;51.296;-0.602;2023-07-13T06:48:57;101410.94;;;18.01;100.00
50356;BME280;36264;51.296;-0.602;2023-07-13T06:51:22;101404.88;;;18.16;100.00
50356;BME280;36264;51.296;-0.602;2023-07-13T06:53:47;101406.41;;;18.20;100.00
50356;BME280;36264;51.296;-0.602;2023-07-13T06:56:13;101407.97;;;18.24;100.00
50356;BME280;36264;51.296;-0.602;2023-07-13T06:58:38;101405.44;;;18.39;100.00
50356;BME280;36264;51.296;-0.602;2023-07-13T07:01:04;101409.88;;;18.54;100.00
50356;BME280;36264;51.296;-0.602;2023-07-13T07:03:30;101413.72;;;18.64;100.00
50356;BME280;36264;51.296;-0.602;2023-07-13T07:06:17;101407.72;;;19.10;100.00
50356;BME280;36264;51.296;-0.602;2023-07-13T07:08:43;101414.94;;;19.07;100.00
50356;BME280;36264;51.296;-0.602;2023-07-13T07:11:16;101420.94;;;19.25;100.00
50356;BME280;36264;51.296;-0.602;2023-07-13T07:13:41;101430.31;;;18.98;100.00
50356;BME280;36264;51.296;-0.602;2023-07-13T07:16:07;101428.28;;;19.04;100.00
50356;BME280;36264;51.296;-0.602;2023-07-13T07:18:33;101429.28;;;19.17;100.00
50356;BME280;36264;51.296;-0.602;2023-07-13T07:20:58;101428.75;;;19.26;100.00
50356;BME280;36264;51.296;-0.602;2023-07-13T07:23:23;101434.53;;;19.33;100.00
50356;BME280;36264;51.296;-0.602;2023-07-13T07:25:49;101440.75;;;19.32;100.00
50356;BME280;36264;51.296;-0.602;2023-07-13T07:28:16;101432.25;;;19.57;100.00
50356;BME280;36264;51.296;-0.602;2023-07-13T07:30:45;101429.63;;;19.57;100.00
50356;BME280;36264;51.296;-0.602;2023-07-13T07:33:10;101434.53;;;19.63;100.00
50356;BME280;36264;51.296;-0.602;2023-07-13T07:35:36;101429.53;;;19.59;100.00
50356;BME280;36264;51.296;-0.602;2023-07-13T07:38:02;101435.22;;;19.67;100.00
50356;BME280;36264;51.296;-0.602;2023-07-13T07:40:27;101436.03;;;19.83;100.00
50356;BME280;36264;51.296;-0.602;2023-07-13T07:42:53;101435.22;;;19.97;100.00
50356;BME280;36264;51.296;-0.602;2023-07-13T07:45:19;101423.53;;;20.01;100.00
50356;BME280;36264;51.296;-0.602;2023-07-13T07:47:44;101447.28;;;20.16;99.71
50356;BME280;36264;51.296;-0.602;2023-07-13T07:50:10;101442.97;;;20.29;98.28
50356;BME280;36264;51.296;-0.602;2023-07-13T07:52:36;101440.91;;;20.34;97.30
50356;BME280;36264;51.296;-0.602;2023-07-13T07:55:01;101445.53;;;20.45;96.83
50356;BME280;36264;51.296;-0.602;2023-07-13T07:57:27;101451.81;;;20.57;94.14
50356;BME280;36264;51.296;-0.602;2023-07-13T07:59:52;101447.00;;;20.35;94.31
50356;BME280;36264;51.296;-0.602;2023-07-13T08:02:17;101454.19;;;20.18;94.90
50356;BME280;36264;51.296;-0.602;2023-07-13T08:04:43;101456.53;;;20.08;97.01
50356;BME280;36264;51.296;-0.602;2023-07-13T08:07:09;101460.78;;;20.25;98.02
50356;BME280;36264;51.296;-0.602;2023-07-13T08:09:34;101461.06;;;20.35;96.06
50356;BME280;36264;51.296;-0.602;2023-07-13T08:12:00;101456.53;;;20.52;96.20
50356;BME280;36264;51.296;-0.602;2023-07-13T08:14:25;101452.88;;;20.54;94.51
50356;BME280;36264;51.296;-0.602;2023-07-13T08:16:51;101444.09;;;20.39;94.13
50356;BME280;36264;51.296;-0.602;2023-07-13T08:19:16;101454.56;;;20.41;94.84
50356;BME280;36264;51.296;-0.602;2023-07-13T08:21:41;101456.63;;;20.21;95.48
50356;BME280;36264;51.296;-0.602;2023-07-13T08:24:10;101449.84;;;20.32;95.60
50356;BME280;36264;51.296;-0.602;2023-07-13T08:26:35;101447.22;;;20.46;95.20
50356;BME280;36264;51.296;-0.602;2023-07-13T08:29:01;101451.44;;;20.34;94.63
50356;BME280;36264;51.296;-0.602;2023-07-13T08:31:27;101447.97;;;20.34;95.49
50356;BME280;36264;51.296;-0.602;2023-07-13T08:33:52;101441.38;;;20.41;94.17
50356;BME280;36264;51.296;-0.602;2023-07-13T08:36:18;101441.19;;;20.44;93.55
50356;BME280;36264;51.296;-0.602;2023-07-13T08:38:43;101440.53;;;20.55;93.46
50356;BME280;36264;51.296;-0.602;2023-07-13T08:41:17;101438.22;;;20.92;91.14
50356;BME280;36264;51.296;-0.602;2023-07-13T08:43:47;101435.91;;;21.14;91.72
50356;BME280;36264;51.296;-0.602;2023-07-13T08:49:00;101435.88;;;21.29;89.18
50356;BME280;36264;51.296;-0.602;2023-07-13T08:53:58;101436.28;;;21.50;86.16
50356;BME280;36264;51.296;-0.602;2023-07-13T08:56:27;101426.72;;;21.75;85.54
50356;BME280;36264;51.296;-0.602;2023-07-13T08:58:56;101430.72;;;21.93;83.78
50356;BME280;36264;51.296;-0.602;2023-07-13T09:04:14;101434.56;;;21.89;79.17
50356;BME280;36264;51.296;-0.602;2023-07-13T09:07:05;101414.44;;;22.12;79.39
50356;BME280;36264;51.296;-0.602;2023-07-13T09:09:52;101428.31;;;22.29;79.91
50356;BME280;36264;51.296;-0.602;2023-07-13T09:14:51;101421.03;;;22.32;78.63
50356;BME280;36264;51.296;-0.602;2023-07-13T09:17:41;101418.59;;;22.16;73.35
50356;BME280;36264;51.296;-0.602;2023-07-13T09:20:34;101417.28;;;22.22;76.98
50356;BME280;36264;51.296;-0.602;2023-07-13T09:23:03;101417.13;;;22.38;78.65
50356;BME280;36264;51.296;-0.602;2023-07-13T09:25:32;101422.50;;;22.49;76.38
50356;BME280;36264;51.296;-0.602;2023-07-13T09:28:20;101420.78;;;22.61;73.74
50356;BME280;36264;51.296;-0.602;2023-07-13T09:31:02;101418.56;;;22.55;75.42
50356;BME280;36264;51.296;-0.602;2023-07-13T09:33:28;101416.25;;;22.37;75.87
50356;BME280;36264;51.296;-0.602;2023-07-13T09:35:59;101423.44;;;22.22;75.99
50356;BME280;36264;51.296;-0.602;2023-07-13T09:38:28;101427.66;;;22.25;75.64
50356;BME280;36264;51.296;-0.602;2023-07-13T09:43:34;101424.41;;;22.34;76.07
50356;BME280;36264;51.296;-0.602;2023-07-13T09:45:59;101429.25;;;22.28;71.78
50356;BME280;36264;51.296;-0.602;2023-07-13T09:48:25;101426.09;;;22.22;72.94
50356;BME280;36264;51.296;-0.602;2023-07-13T09:50:54;101429.91;;;22.44;72.13
50356;BME280;36264;51.296;-0.602;2023-07-13T09:53:21;101418.44;;;22.56;69.28
50356;BME280;36264;51.296;-0.602;2023-07-13T09:55:48;101425.97;;;22.63;71.99
50356;BME280;36264;51.296;-0.602;2023-07-13T09:58:18;101434.09;;;22.96;71.70
50356;BME280;36264;51.296;-0.602;2023-07-13T10:01:01;101428.22;;;23.17;72.06
50356;BME280;36264;51.296;-0.602;2023-07-13T10:03:34;101430.06;;;23.52;71.80
50356;BME280;36264;51.296;-0.602;2023-07-13T10:06:15;101421.34;;;23.39;69.76
50356;BME280;36264;51.296;-0.602;2023-07-13T10:08:41;101429.75;;;23.32;69.46
50356;BME280;36264;51.296;-0.602;2023-07-13T10:11:17;101424.81;;;23.63;69.86
50356;BME280;36264;51.296;-0.602;2023-07-13T10:13:57;101425.00;;;23.84;68.40
50356;BME280;36264;51.296;-0.602;2023-07-13T10:16:25;101429.38;;;23.85;69.25
50356;BME280;36264;51.296;-0.602;2023-07-13T10:18:58;101429.88;;;24.02;65.45
50356;BME280;36264;51.296;-0.602;2023-07-13T10:21:33;101433.47;;;24.12;66.63
50356;BME280;36264;51.296;-0.602;2023-07-13T10:24:14;101424.81;;;24.33;67.49
50356;BME280;36264;51.296;-0.602;2023-07-13T10:26:42;101430.22;;;24.31;64.03
50356;BME280;36264;51.296;-0.602;2023-07-13T10:29:14;101423.72;;;24.35;64.65
50356;BME280;36264;51.296;-0.602;2023-07-13T10:31:41;101434.00;;;24.29;65.77
50356;BME280;36264;51.296;-0.602;2023-07-13T10:34:10;101428.06;;;24.48;66.34
50356;BME280;36264;51.296;-0.602;2023-07-13T10:36:44;101429.63;;;24.39;63.32
50356;BME280;36264;51.296;-0.602;2023-07-13T10:39:30;101433.94;;;23.95;63.09
50356;BME280;36264;51.296;-0.602;2023-07-13T10:41:59;101433.53;;;23.77;64.85
50356;BME280;36264;51.296;-0.602;2023-07-13T10:44:26;101428.34;;;23.75;63.17
50356;BME280;36264;51.296;-0.602;2023-07-13T10:47:02;101432.16;;;23.71;65.45
50356;BME280;36264;51.296;-0.602;2023-07-13T10:49:30;101429.72;;;23.57;66.29
50356;BME280;36264;51.296;-0.602;2023-07-13T10:51:56;101434.06;;;23.22;66.73
50356;BME280;36264;51.296;-0.602;2023-07-13T10:54:35;101440.09;;;23.24;67.94
50356;BME280;36264;51.296;-0.602;2023-07-13T10:57:20;101438.72;;;23.19;67.50
50356;BME280;36264;51.296;-0.602;2023-07-13T11:00:21;101436.47;;;23.25;68.29
50356;BME280;36264;51.296;-0.602;2023-07-13T11:02:39;101429.75;;;23.32;67.21
50356;BME280;36264;51.296;-0.602;2023-07-13T11:05:25;101426.16;;;23.33;65.57
50356;BME280;36264;51.296;-0.602;2023-07-13T11:07:56;101424.63;;;23.18;67.82
50356;BME280;36264;51.296;-0.602;2023-07-13T11:10:47;101431.44;;;23.33;66.26
50356;BME280;36264;51.296;-0.602;2023-07-13T11:18:45;101426.63;;;23.74;66.49
50356;BME280;36264;51.296;-0.602;2023-07-13T11:23:43;101441.00;;;22.99;68.17
50356;BME280;36264;51.296;-0.602;2023-07-13T11:26:38;101457.56;;;22.90;69.16
50356;BME280;36264;51.296;-0.602;2023-07-13T11:31:56;101466.00;;;22.58;72.44
50356;BME280;36264;51.296;-0.602;2023-07-13T11:34:33;101468.94;;;22.28;75.60
50356;BME280;36264;51.296;-0.602;2023-07-13T11:37:01;101481.94;;;21.52;79.51
50356;BME280;36264;51.296;-0.602;2023-07-13T11:39:30;101488.31;;;20.79;97.99
50356;BME280;36264;51.296;-0.602;2023-07-13T11:41:59;101491.75;;;20.22;100.00
50356;BME280;36264;51.296;-0.602;2023-07-13T11:44:30;101495.91;;;20.12;100.00
50356;BME280;36264;51.296;-0.602;2023-07-13T11:46:58;101485.53;;;20.08;100.00
50356;BME280;36264;51.296;-0.602;2023-07-13T11:49:30;101488.47;;;20.33;100.00
50356;BME280;36264;51.296;-0.602;2023-07-13T11:51:57;101481.53;;;20.60;100.00
50356;BME280;36264;51.296;-0.602;2023-07-13T11:56:52;101485.84;;;21.05;100.00
50356;BME280;36264;51.296;-0.602;2023-07-13T11:59:18;101473.88;;;21.26;100.00
50356;BME280;36264;51.296;-0.602;2023-07-13T12:01:46;101480.72;;;21.43;100.00
50356;BME280;36264;51.296;-0.602;2023-07-13T12:04:26;101473.59;;;21.58;100.00
50356;BME280;36264;51.296;-0.602;2023-07-13T12:06:57;101471.84;;;21.59;100.00
50356;BME280;36264;51.296;-0.602;2023-07-13T12:09:26;101471.38;;;21.52;99.94
50356;BME280;36264;51.296;-0.602;2023-07-13T12:11:52;101466.34;;;21.47;100.00
50356;BME280;36264;51.296;-0.602;2023-07-13T12:14:18;101466.00;;;21.66;100.00
50356;BME280;36264;51.296;-0.602;2023-07-13T12:16:46;101456.34;;;21.93;100.00
50356;BME280;36264;51.296;-0.602;2023-07-13T12:19:20;101446.44;;;22.35;99.03
50356;BME280;36264;51.296;-0.602;2023-07-13T12:21:47;101445.38;;;22.37;98.98
50356;BME280;36264;51.296;-0.602;2023-07-13T12:24:18;101448.75;;;22.52;98.86
50356;BME280;36264;51.296;-0.602;2023-07-13T12:26:43;101455.69;;;22.66;100.00
50356;BME280;36264;51.296;-0.602;2023-07-13T12:29:15;101434.47;;;22.42;100.00
50356;BME280;36264;51.296;-0.602;2023-07-13T12:31:43;101436.88;;;22.58;100.00
50356;BME280;36264;51.296;-0.602;2023-07-13T12:34:14;101435.63;;;22.88;100.00
50356;BME280;36264;51.296;-0.602;2023-07-13T12:36:47;101428.22;;;23.17;96.62
50356;BME280;36264;51.296;-0.602;2023-07-13T12:41:41;101418.00;;;23.12;92.41
50356;BME280;36264;51.296;-0.602;2023-07-13T12:44:14;101416.00;;;23.27;90.38
50356;BME280;36264;51.296;-0.602;2023-07-13T12:46:52;101409.28;;;23.34;90.19
50356;BME280;36264;51.296;-0.602;2023-07-13T12:49:23;101414.97;;;23.41;89.76
50356;BME280;36264;51.296;-0.602;2023-07-13T12:51:56;101410.50;;;23.42;89.47
50356;BME280;36264;51.296;-0.602;2023-07-13T12:56:51;101409.72;;;23.04;88.99
50356;BME280;36264;51.296;-0.602;2023-07-13T12:59:20;101410.38;;;23.08;89.03
50356;BME280;36264;51.296;-0.602;2023-07-13T13:01:46;101411.97;;;22.97;86.95
50356;BME280;36264;51.296;-0.602;2023-07-13T13:04:14;101409.75;;;22.91;86.57
50356;BME280;36264;51.296;-0.602;2023-07-13T13:06:40;101419.84;;;22.86;85.28
50356;BME280;36264;51.296;-0.602;2023-07-13T13:09:17;101420.63;;;23.00;84.99
50356;BME280;36264;51.296;-0.602;2023-07-13T13:11:45;101422.28;;;22.89;84.89
50356;BME280;36264;51.296;-0.602;2023-07-13T13:14:10;101426.34;;;23.19;84.48
50356;BME280;36264;51.296;-0.602;2023-07-13T13:16:48;101412.41;;;23.75;82.70